Vidin, Bulgaria
Current Conditions -  °F | °C
As of 5:30 PM on Sunday 23 Nov 2014 (Local Time) from LRCV Reporting Station
Haze Haze  
Wind Chill: 38°   Ceiling: 2900
Heat Index: 41°   Visibility: 3mi
Dew Point: 37°   Wind: 5mph
Humidity: 87%   Direction: 120°ESE
Pressure: 30.39"   Gusts: NA
Location:  44.01°N, 22.87°E
Report Text: LRCV 231430Z 12004KT 5000 BR FEW008 OVC029 05/03 Q1029
Loading
Personal Weather Stations






























Interactive Weather Map New forecast layout! Learn more

10-Day Weather Forecast

Advertisements
Track Severe Weather on mobile